Time;durP1;ratioP1;P1;durP2;ratioP2;P2;SDS_P1;SDS_P2;PMS_P1;PMS_P2;Temp;Humidity;BMP_temperature;BMP_pressure;BME280_temperature;BME280_humidity;BME280_pressure;Samples;Min_cycle;Max_cycle;Signal;HPM_P1;HPM_P2
2023/12/30 00:01:10;;;;;;;15.30;12.60;;;;;;;6.86;86.10;97463.70;106192;1270;25430;-76
2023/12/30 00:03:38;;;;;;;16.60;13.30;;;;;;;6.83;85.90;97463.73;106226;1283;23894;-75
2023/12/30 00:06:07;;;;;;;15.70;12.20;;;;;;;6.82;86.66;97463.20;106255;1272;24404;-75
2023/12/30 00:08:35;;;;;;;14.40;11.60;;;;;;;6.82;86.48;97455.70;106125;1269;22667;-74
2023/12/30 00:11:03;;;;;;;14.50;12.00;;;;;;;6.80;86.73;97458.77;106168;1274;24353;-76
2023/12/30 00:13:31;;;;;;;15.00;12.90;;;;;;;6.80;86.91;97455.23;106228;1276;24988;-76
2023/12/30 00:15:59;;;;;;;12.90;11.20;;;;;;;6.78;86.65;97453.44;106230;1283;22536;-76
2023/12/30 00:18:27;;;;;;;14.10;10.50;;;;;;;6.77;86.77;97452.34;106251;1268;22659;-75
2023/12/30 00:20:55;;;;;;;12.00;10.70;;;;;;;6.79;86.82;97450.39;106250;1280;22547;-75
2023/12/30 00:23:23;;;;;;;13.30;11.80;;;;;;;6.77;86.75;97449.55;106221;1283;25541;-75
2023/12/30 00:25:56;;;;;;;14.20;10.80;;;;;;;6.75;86.74;97453.10;106311;1282;22639;-75
2023/12/30 00:28:24;;;;;;;14.60;11.70;;;;;;;6.74;87.20;97450.65;106269;1282;22651;-75
2023/12/30 00:30:52;;;;;;;14.30;11.10;;;;;;;6.75;87.30;97453.42;106276;1282;23908;-76
2023/12/30 00:33:20;;;;;;;13.40;11.70;;;;;;;6.79;87.62;97448.56;106448;1270;23925;-76
2023/12/30 00:35:48;;;;;;;11.90;10.60;;;;;;;6.85;87.81;97450.59;106166;1283;24234;-75
2023/12/30 00:38:16;;;;;;;9.50;8.50;;;;;;;6.90;87.70;97451.70;106262;1274;25553;-75
2023/12/30 00:40:51;;;;;;;13.50;9.10;;;;;;;6.93;87.49;97455.01;106245;1283;25440;-75
2023/12/30 00:43:19;;;;;;;8.20;7.40;;;;;;;6.92;87.38;97454.63;106254;1273;22958;-75
2023/12/30 00:45:48;;;;;;;8.40;6.90;;;;;;;6.94;87.16;97453.12;106275;1283;25246;-75
2023/12/30 00:48:16;;;;;;;9.10;6.80;;;;;;;6.95;86.91;97454.27;106234;1283;22554;-75
2023/12/30 00:50:45;;;;;;;7.40;5.80;;;;;;;6.98;87.04;97454.77;106251;1283;23936;-75
2023/12/30 00:53:14;;;;;;;7.50;5.60;;;;;;;7.05;87.20;97451.11;106202;1273;25394;-76
2023/12/30 00:55:42;;;;;;;7.90;5.90;;;;;;;7.10;87.71;97451.46;106185;1268;23021;-75
2023/12/30 00:58:10;;;;;;;8.40;6.60;;;;;;;7.16;86.96;97450.65;106258;1282;24402;-76
2023/12/30 01:00:38;;;;;;;7.10;6.10;;;;;;;7.13;86.83;97444.52;106222;1283;22783;-76
2023/12/30 01:03:06;;;;;;;7.70;6.20;;;;;;;7.09;86.69;97443.07;106150;1283;24372;-75
2023/12/30 01:05:34;;;;;;;7.90;6.20;;;;;;;7.06;86.61;97444.98;106151;1268;22553;-76
2023/12/30 01:08:03;;;;;;;7.20;6.40;;;;;;;7.04;86.68;97442.59;106267;1276;22818;-76
2023/12/30 01:10:31;;;;;;;6.20;5.30;;;;;;;7.06;87.45;97442.79;106271;1273;22866;-77
2023/12/30 01:12:59;;;;;;;7.50;5.70;;;;;;;7.09;87.29;97441.63;106317;1283;24329;-77
2023/12/30 01:15:27;;;;;;;6.60;5.40;;;;;;;7.10;87.01;97441.19;106640;1265;23379;-77
2023/12/30 01:17:55;;;;;;;7.60;5.40;;;;;;;7.10;86.85;97438.77;106698;1283;22604;-76
2023/12/30 01:20:23;;;;;;;7.60;6.10;;;;;;;7.07;86.91;97436.29;106254;1276;25430;-76
2023/12/30 01:22:51;;;;;;;6.30;5.20;;;;;;;7.06;86.47;97436.14;106255;1283;22549;-77
2023/12/30 01:25:19;;;;;;;6.10;5.00;;;;;;;7.06;86.79;97429.66;106273;1276;22540;-76
2023/12/30 01:27:47;;;;;;;6.70;5.70;;;;;;;7.06;86.66;97428.70;106603;1270;22556;-77
2023/12/30 01:30:15;;;;;;;7.10;5.80;;;;;;;7.05;86.85;97426.34;106259;1269;24290;-76
2023/12/30 01:32:44;;;;;;;7.20;5.80;;;;;;;7.03;86.89;97425.84;106295;1268;25540;-77
2023/12/30 01:35:14;;;;;;;8.90;6.10;;;;;;;7.01;86.74;97426.98;106637;1266;25399;-77
2023/12/30 01:37:42;;;;;;;9.40;5.90;;;;;;;6.99;86.74;97424.11;106566;1276;25438;-78
2023/12/30 01:40:11;;;;;;;8.10;5.30;;;;;;;7.00;86.88;97421.16;106293;1270;25356;-78
2023/12/30 01:42:40;;;;;;;5.90;5.30;;;;;;;7.04;87.39;97416.34;106598;1268;22556;-77
2023/12/30 01:45:08;;;;;;;7.00;5.70;;;;;;;7.10;88.11;97415.68;106147;1283;25548;-77
2023/12/30 01:47:37;;;;;;;7.80;6.00;;;;;;;7.15;87.94;97413.64;106676;1271;22560;-76
2023/12/30 01:50:07;;;;;;;9.40;6.70;;;;;;;7.16;87.66;97413.19;106722;1280;23426;-78
2023/12/30 01:52:36;;;;;;;7.30;5.70;;;;;;;7.17;87.48;97414.89;106329;1283;22727;-76
2023/12/30 01:55:06;;;;;;;8.00;6.60;;;;;;;7.15;87.13;97411.17;106275;1280;23930;-77
2023/12/30 01:57:34;;;;;;;7.30;6.40;;;;;;;7.09;87.20;97407.72;106307;1283;22564;-76
2023/12/30 02:00:04;;;;;;;7.50;6.00;;;;;;;7.04;87.13;97409.70;106256;1283;22537;-76
2023/12/30 02:02:38;;;;;;;7.30;5.70;;;;;;;7.00;86.87;97408.89;106675;1283;22837;-77
2023/12/30 02:05:06;;;;;;;10.70;7.80;;;;;;;6.98;86.85;97407.53;106341;1276;22616;-76
2023/12/30 02:07:35;;;;;;;7.80;7.00;;;;;;;6.93;86.80;97405.86;106378;1282;24221;-79
2023/12/30 02:10:03;;;;;;;8.00;6.30;;;;;;;6.89;87.09;97406.77;106234;1282;24242;-76
2023/12/30 02:12:31;;;;;;;7.90;7.10;;;;;;;6.82;87.25;97403.76;106363;1282;22671;-78
2023/12/30 02:15:13;;;;;;;8.70;7.80;;;;;;;6.76;87.36;97405.05;106149;1276;22724;-77
2023/12/30 02:17:41;;;;;;;8.60;7.80;;;;;;;6.70;87.30;97397.05;106362;1277;23125;-77
2023/12/30 02:20:11;;;;;;;8.10;7.20;;;;;;;6.66;87.36;97392.16;106781;1277;26672;-78
2023/12/30 02:22:42;;;;;;;8.00;6.90;;;;;;;6.63;87.12;97389.40;106230;1281;22547;-79
2023/12/30 02:25:14;;;;;;;8.40;6.50;;;;;;;6.62;87.31;97385.89;106709;1280;25391;-78
2023/12/30 02:27:43;;;;;;;8.20;7.40;;;;;;;6.61;87.62;97385.04;106326;1273;26737;-78
2023/12/30 02:30:13;;;;;;;8.40;6.50;;;;;;;6.57;88.03;97382.30;106277;1279;25174;-78
2023/12/30 02:32:41;;;;;;;7.90;6.30;;;;;;;6.57;88.21;97379.19;106389;1283;25500;-78
2023/12/30 02:35:09;;;;;;;7.30;6.10;;;;;;;6.57;87.98;97375.12;106306;1283;23940;-77
2023/12/30 02:37:37;;;;;;;8.10;6.80;;;;;;;6.53;87.77;97371.36;106614;1283;23151;-79
2023/12/30 02:40:06;;;;;;;7.20;6.20;;;;;;;6.49;87.93;97369.42;106633;1273;22562;-78
2023/12/30 02:42:34;;;;;;;8.50;6.30;;;;;;;6.47;87.79;97370.74;106480;1283;24426;-76
2023/12/30 02:45:03;;;;;;;8.40;6.90;;;;;;;6.52;88.28;97366.89;106554;1282;22560;-78
2023/12/30 02:47:31;;;;;;;8.00;7.20;;;;;;;6.54;88.14;97364.89;106304;1283;24804;-81
2023/12/30 02:49:59;;;;;;;8.80;6.50;;;;;;;6.54;88.09;97364.98;106534;1268;25396;-76
2023/12/30 02:52:27;;;;;;;7.80;6.90;;;;;;;6.53;88.12;97360.88;106259;1283;22570;-76
2023/12/30 02:54:56;;;;;;;8.90;7.50;;;;;;;6.52;87.92;97358.27;106165;1274;22551;-75
2023/12/30 02:57:25;;;;;;;7.20;5.70;;;;;;;6.51;87.86;97349.61;106213;1283;22548;-76
2023/12/30 02:59:53;;;;;;;8.00;6.40;;;;;;;6.53;88.08;97354.30;106249;1277;22554;-76
2023/12/30 03:02:21;;;;;;;7.20;6.10;;;;;;;6.56;88.48;97354.73;106250;1283;22558;-76
2023/12/30 03:04:49;;;;;;;7.70;6.80;;;;;;;6.57;88.30;97355.69;106232;1272;22777;-76
2023/12/30 03:07:18;;;;;;;8.90;6.90;;;;;;;6.58;88.42;97358.03;106262;1275;23919;-76
2023/12/30 03:09:46;;;;;;;7.90;7.10;;;;;;;6.58;88.24;97353.96;106290;1266;22588;-76
2023/12/30 03:12:15;;;;;;;9.30;8.30;;;;;;;6.58;88.20;97352.46;106200;1270;24412;-74
2023/12/30 03:14:43;;;;;;;9.00;7.30;;;;;;;6.56;88.05;97348.69;106202;1277;22558;-74
2023/12/30 03:17:12;;;;;;;8.70;6.80;;;;;;;6.57;88.18;97344.39;106262;1272;22601;-75
2023/12/30 03:19:41;;;;;;;8.10;6.20;;;;;;;6.60;88.59;97347.52;106284;1273;24265;-76
2023/12/30 03:22:09;;;;;;;8.30;6.20;;;;;;;6.62;88.58;97345.09;106266;1277;22547;-76
2023/12/30 03:24:38;;;;;;;7.90;6.90;;;;;;;6.64;88.77;97341.42;106410;1274;25508;-75
2023/12/30 03:27:06;;;;;;;7.70;6.70;;;;;;;6.66;88.93;97337.88;106422;1282;22760;-78
2023/12/30 03:29:34;;;;;;;7.80;7.00;;;;;;;6.67;88.65;97337.64;106561;1273;22573;-77
2023/12/30 03:32:02;;;;;;;7.00;6.30;;;;;;;6.70;88.80;97332.95;106481;1277;22549;-77
2023/12/30 03:34:30;;;;;;;7.30;5.60;;;;;;;6.74;88.73;97332.14;106489;1270;22574;-77
2023/12/30 03:36:58;;;;;;;7.00;5.40;;;;;;;6.80;88.88;97340.20;106223;1273;24213;-78
2023/12/30 03:39:26;;;;;;;6.50;5.80;;;;;;;6.81;89.10;97344.68;106502;1283;22550;-78
2023/12/30 03:41:54;;;;;;;6.50;5.30;;;;;;;6.83;89.13;97350.08;106485;1277;22577;-78
2023/12/30 03:44:23;;;;;;;6.30;5.70;;;;;;;6.85;88.79;97348.08;106557;1277;23899;-78
2023/12/30 03:46:52;;;;;;;6.30;5.60;;;;;;;6.86;89.06;97350.85;106513;1274;24401;-77
2023/12/30 03:49:20;;;;;;;7.30;6.50;;;;;;;6.88;89.00;97352.80;106279;1273;22685;-78
2023/12/30 03:51:48;;;;;;;8.40;6.30;;;;;;;6.93;89.18;97352.79;106569;1283;24354;-78
2023/12/30 03:54:16;;;;;;;6.30;5.50;;;;;;;6.97;89.32;97356.20;106289;1276;22540;-76
2023/12/30 03:56:44;;;;;;;8.50;6.10;;;;;;;7.03;89.15;97354.80;106110;1280;22678;-77
2023/12/30 03:59:12;;;;;;;6.00;5.30;;;;;;;7.05;89.00;97352.20;106645;1269;22561;-77
2023/12/30 04:01:43;;;;;;;6.30;4.90;;;;;;;7.10;88.78;97352.39;106293;1283;25436;-76
2023/12/30 04:04:11;;;;;;;5.60;4.50;;;;;;;7.15;88.78;97346.44;106275;1283;25271;-76
2023/12/30 04:06:39;;;;;;;6.30;5.00;;;;;;;7.19;89.34;97337.73;106561;1269;24377;-76
2023/12/30 04:09:07;;;;;;;7.20;5.30;;;;;;;7.22;88.94;97325.48;106205;1279;22538;-77
2023/12/30 04:11:35;;;;;;;5.40;4.70;;;;;;;7.21;88.78;97320.14;106543;1283;22550;-76
2023/12/30 04:14:03;;;;;;;6.10;4.80;;;;;;;7.20;88.59;97322.83;106552;1271;22566;-77
2023/12/30 04:16:31;;;;;;;5.60;4.70;;;;;;;7.18;87.89;97314.93;106104;1273;22752;-76
2023/12/30 04:18:59;;;;;;;5.20;4.70;;;;;;;7.20;87.51;97314.95;106106;1280;23454;-78
2023/12/30 04:21:27;;;;;;;6.10;3.80;;;;;;;7.21;87.76;97319.50;106203;1273;26542;-78
2023/12/30 04:23:55;;;;;;;5.30;4.50;;;;;;;7.32;87.55;97328.07;106232;1272;22670;-76
2023/12/30 04:26:23;;;;;;;4.90;4.10;;;;;;;7.36;86.95;97330.39;106252;1271;25373;-77
2023/12/30 04:28:51;;;;;;;4.60;4.10;;;;;;;7.39;85.78;97329.73;106493;1283;25371;-76
2023/12/30 04:31:19;;;;;;;4.60;3.50;;;;;;;7.43;85.19;97322.48;106428;1270;24406;-77
2023/12/30 04:33:48;;;;;;;5.70;4.40;;;;;;;7.46;84.55;97324.79;106240;1277;22665;-77
2023/12/30 04:36:16;;;;;;;4.90;4.30;;;;;;;7.47;84.37;97328.80;106273;1270;22781;-77
2023/12/30 04:38:46;;;;;;;4.70;4.10;;;;;;;7.49;85.34;97329.15;106167;1282;23831;-77
2023/12/30 04:41:14;;;;;;;6.20;5.00;;;;;;;7.51;84.80;97332.50;106607;1272;22595;-77
2023/12/30 04:43:42;;;;;;;5.20;4.70;;;;;;;7.52;84.03;97346.42;106580;1283;22775;-77
2023/12/30 04:46:14;;;;;;;5.30;4.60;;;;;;;7.55;83.12;97359.18;106712;1283;25449;-78
2023/12/30 04:48:42;;;;;;;5.20;5.30;;;;;;;7.56;82.74;97356.88;106605;1270;24032;-77
2023/12/30 04:51:10;;;;;;;5.70;4.70;;;;;;;7.54;82.84;97347.46;106141;1273;22659;-78
2023/12/30 04:53:39;;;;;;;5.70;3.80;;;;;;;7.50;83.28;97354.98;106263;1283;22547;-77
2023/12/30 04:56:16;;;;;;;5.40;3.80;;;;;;;7.55;83.55;97353.35;106317;1282;25293;-77
2023/12/30 04:58:44;;;;;;;5.00;3.90;;;;;;;7.56;83.16;97352.21;106255;1284;25481;-77
2023/12/30 05:01:12;;;;;;;5.60;4.60;;;;;;;7.56;82.57;97355.54;106269;1270;24447;-77
2023/12/30 05:03:42;;;;;;;5.20;4.50;;;;;;;7.54;82.10;97363.33;106469;1278;23274;-78
2023/12/30 05:06:24;;;;;;;5.70;4.10;;;;;;;7.54;81.90;97357.64;106196;1284;22543;-78
2023/12/30 05:08:53;;;;;;;9.30;4.40;;;;;;;7.46;82.08;97365.64;106243;1260;25566;-77
2023/12/30 05:11:23;;;;;;;5.30;4.60;;;;;;;7.47;82.99;97364.56;106570;1284;22583;-78
2023/12/30 05:13:51;;;;;;;6.10;4.10;;;;;;;7.46;82.89;97369.58;106309;1271;22642;-77
2023/12/30 05:16:19;;;;;;;4.50;3.50;;;;;;;7.46;82.77;97373.73;106658;1270;25938;-77
2023/12/30 05:18:47;;;;;;;6.00;4.90;;;;;;;7.43;82.42;97369.71;106604;1284;25342;-77
2023/12/30 05:21:16;;;;;;;6.30;4.60;;;;;;;7.45;82.14;97374.61;106552;1282;25551;-78
2023/12/30 05:23:44;;;;;;;5.00;4.20;;;;;;;7.45;82.18;97373.45;106547;1284;22569;-80
2023/12/30 05:26:13;;;;;;;5.10;4.10;;;;;;;7.47;82.77;97380.33;106658;1269;25283;-78
2023/12/30 05:28:41;;;;;;;5.90;4.10;;;;;;;7.51;82.82;97383.48;106583;1284;22593;-78
2023/12/30 05:31:09;;;;;;;4.30;3.90;;;;;;;7.53;82.86;97382.23;106573;1282;25407;-78
2023/12/30 05:33:37;;;;;;;5.20;3.80;;;;;;;7.52;82.60;97384.50;106428;1284;22595;-78
2023/12/30 05:36:05;;;;;;;6.50;4.40;;;;;;;7.50;82.24;97384.63;106583;1284;25388;-78
2023/12/30 05:38:33;;;;;;;5.50;3.80;;;;;;;7.47;82.63;97389.27;106480;1273;23947;-78
2023/12/30 05:41:01;;;;;;;4.40;3.70;;;;;;;7.49;82.61;97394.89;106467;1284;22577;-78
2023/12/30 05:43:29;;;;;;;4.70;3.70;;;;;;;7.56;82.82;97401.48;106498;1273;24280;-77
2023/12/30 05:45:57;;;;;;;3.90;3.50;;;;;;;7.58;82.32;97395.60;106538;1266;24264;-78
2023/12/30 05:48:25;;;;;;;5.00;3.50;;;;;;;7.59;82.05;97398.33;106431;1282;24362;-78
2023/12/30 05:50:53;;;;;;;4.80;4.30;;;;;;;7.60;81.62;97401.58;106509;1284;24431;-78
2023/12/30 05:53:21;;;;;;;5.20;4.20;;;;;;;7.57;81.24;97399.38;106560;1278;22562;-77
2023/12/30 05:55:51;;;;;;;4.20;3.80;;;;;;;7.57;81.92;97406.23;106231;1270;22648;-77
2023/12/30 05:58:18;;;;;;;5.40;3.90;;;;;;;7.56;82.19;97408.62;106284;1273;24718;-77
2023/12/30 06:00:46;;;;;;;6.00;4.00;;;;;;;7.53;82.05;97405.39;106261;1283;22545;-77
2023/12/30 06:03:14;;;;;;;4.90;3.90;;;;;;;7.51;82.01;97418.02;106264;1273;22539;-77
2023/12/30 06:05:42;;;;;;;4.70;4.00;;;;;;;7.48;81.63;97412.38;106599;1282;22654;-77
2023/12/30 06:08:11;;;;;;;6.50;4.40;;;;;;;7.43;81.75;97417.76;106270;1281;22540;-77
2023/12/30 06:10:39;;;;;;;4.10;3.40;;;;;;;7.45;82.13;97416.33;106252;1270;22544;-77
2023/12/30 06:13:07;;;;;;;4.50;3.30;;;;;;;7.46;82.29;97415.98;106171;1270;23768;-77
2023/12/30 06:15:35;;;;;;;5.40;4.10;;;;;;;7.46;81.95;97415.93;106203;1273;25367;-77
2023/12/30 06:18:03;;;;;;;5.40;3.80;;;;;;;7.45;81.59;97416.98;106323;1270;24285;-78
2023/12/30 06:20:32;;;;;;;6.20;3.80;;;;;;;7.45;81.87;97406.89;106630;1276;22547;-79
2023/12/30 06:23:00;;;;;;;4.90;3.80;;;;;;;7.43;81.47;97408.31;106602;1273;25431;-76
2023/12/30 06:25:28;;;;;;;4.70;3.70;;;;;;;7.43;81.98;97410.20;106373;1282;24271;-76
2023/12/30 06:27:56;;;;;;;6.20;4.50;;;;;;;7.45;82.46;97412.70;106652;1282;22615;-78
2023/12/30 06:30:24;;;;;;;4.90;4.40;;;;;;;7.47;82.27;97413.78;106679;1276;22575;-78
2023/12/30 06:32:52;;;;;;;6.60;5.50;;;;;;;7.47;81.75;97404.78;106247;1273;23486;-78
2023/12/30 06:35:21;;;;;;;7.90;4.60;;;;;;;7.45;81.99;97406.13;106172;1280;22655;-77
2023/12/30 06:37:49;;;;;;;5.90;5.30;;;;;;;7.41;81.54;97406.58;106312;1282;22537;-78
2023/12/30 06:40:16;;;;;;;5.10;4.30;;;;;;;7.38;81.60;97405.61;106651;1282;22548;-77
2023/12/30 06:42:47;;;;;;;6.00;5.40;;;;;;;7.39;82.02;97408.69;106600;1274;25562;-77
2023/12/30 06:45:15;;;;;;;7.00;5.10;;;;;;;7.44;82.83;97411.26;106579;1270;24412;-77
2023/12/30 06:47:43;;;;;;;5.90;5.30;;;;;;;7.47;82.33;97413.30;106522;1283;22563;-79
2023/12/30 06:50:12;;;;;;;6.20;5.20;;;;;;;7.46;82.11;97417.00;106586;1276;22544;-78
2023/12/30 06:52:40;;;;;;;5.80;5.10;;;;;;;7.46;81.82;97421.05;106652;1270;22553;-78
2023/12/30 06:55:11;;;;;;;6.10;4.80;;;;;;;7.43;82.06;97422.69;106614;1283;24366;-78
2023/12/30 06:57:49;;;;;;;6.20;4.60;;;;;;;7.42;81.78;97417.77;106555;1273;22585;-78
2023/12/30 07:00:18;;;;;;;6.20;3.80;;;;;;;7.43;82.55;97420.42;106639;1270;22569;-78
2023/12/30 07:02:46;;;;;;;6.20;4.60;;;;;;;7.45;82.72;97422.00;106656;1273;24227;-79
2023/12/30 07:05:14;;;;;;;5.80;4.60;;;;;;;7.47;82.32;97434.16;106254;1269;22557;-79
2023/12/30 07:07:42;;;;;;;5.80;4.50;;;;;;;7.51;81.96;97435.16;106280;1261;24273;-77
2023/12/30 07:10:10;;;;;;;9.70;6.50;;;;;;;7.51;81.95;97436.52;106276;1273;24272;-78
2023/12/30 07:12:39;;;;;;;37.30;16.30;;;;;;;7.49;81.89;97437.46;106289;1273;23065;-78
2023/12/30 07:15:07;;;;;;;27.50;12.50;;;;;;;7.49;82.44;97438.05;106593;1270;22557;-78
2023/12/30 07:17:36;;;;;;;25.40;11.40;;;;;;;7.52;82.63;97441.48;106618;1283;25392;-79
2023/12/30 07:20:04;;;;;;;7.60;5.30;;;;;;;7.58;82.34;97432.13;106644;1270;22551;-79
2023/12/30 07:22:32;;;;;;;8.60;5.30;;;;;;;7.61;81.70;97432.45;106606;1269;24405;-78
2023/12/30 07:25:00;;;;;;;8.10;7.20;;;;;;;7.61;81.79;97433.75;106564;1283;23925;-79
2023/12/30 07:27:28;;;;;;;23.60;21.20;;;;;;;7.61;81.66;97434.98;106574;1271;22504;-78
2023/12/30 07:29:57;;;;;;;21.00;19.10;;;;;;;7.59;82.01;97439.62;106590;1276;25396;-78
2023/12/30 07:32:26;;;;;;;14.50;13.20;;;;;;;7.63;82.55;97435.42;106635;1268;22695;-78
2023/12/30 07:34:53;;;;;;;6.10;5.10;;;;;;;7.66;82.61;97443.80;106597;1280;22775;-77
2023/12/30 07:37:22;;;;;;;6.60;4.90;;;;;;;7.69;81.97;97449.81;106206;1282;22549;-79
2023/12/30 07:39:50;;;;;;;8.70;6.40;;;;;;;7.71;81.49;97451.62;106494;1283;25448;-78
2023/12/30 07:42:18;;;;;;;6.90;5.70;;;;;;;7.70;81.70;97449.65;106507;1277;22576;-78
2023/12/30 07:44:49;;;;;;;6.60;5.70;;;;;;;7.70;81.83;97445.98;106512;1280;25272;-77
2023/12/30 07:47:17;;;;;;;6.30;5.10;;;;;;;7.75;82.43;97452.36;106160;1270;22567;-77
2023/12/30 07:49:48;;;;;;;7.20;5.90;;;;;;;7.79;82.42;97451.89;106299;1274;25319;-78
2023/12/30 07:52:16;;;;;;;7.40;6.40;;;;;;;7.78;82.13;97454.58;106352;1269;25277;-79
2023/12/30 07:54:45;;;;;;;9.80;7.40;;;;;;;7.81;81.99;97453.73;106718;1283;22612;-78
2023/12/30 07:57:13;;;;;;;8.40;7.20;;;;;;;7.82;81.62;97449.63;106732;1268;24362;-78
2023/12/30 07:59:41;;;;;;;7.40;5.40;;;;;;;7.82;81.50;97438.37;106714;1283;25436;-78
2023/12/30 08:02:09;;;;;;;6.70;5.50;;;;;;;7.85;81.57;97448.41;106683;1283;23316;-78
2023/12/30 08:04:41;;;;;;;5.90;4.90;;;;;;;7.92;82.04;97455.41;106636;1282;22654;-77
2023/12/30 08:07:10;;;;;;;8.40;6.90;;;;;;;7.99;82.15;97459.58;106659;1276;22554;-78
2023/12/30 08:09:38;;;;;;;11.40;9.70;;;;;;;8.04;80.97;97452.79;106309;1283;24387;-78
2023/12/30 08:12:06;;;;;;;12.60;10.00;;;;;;;8.05;80.73;97450.88;106699;1272;22545;-79
2023/12/30 08:14:35;;;;;;;9.40;8.20;;;;;;;8.05;80.75;97455.33;106644;1283;23416;-77
2023/12/30 08:17:03;;;;;;;9.60;8.50;;;;;;;8.06;80.95;97456.29;106628;1283;25454;-79
2023/12/30 08:19:32;;;;;;;7.40;5.40;;;;;;;8.10;81.62;97463.27;106246;1283;25396;-77
2023/12/30 08:22:00;;;;;;;9.30;6.90;;;;;;;8.14;81.65;97472.86;106594;1283;25471;-78
2023/12/30 08:24:30;;;;;;;7.00;5.00;;;;;;;8.15;81.23;97467.86;106601;1273;22666;-78
2023/12/30 08:26:58;;;;;;;5.60;4.80;;;;;;;8.16;80.93;97463.90;106703;1272;22752;-78
2023/12/30 08:29:27;;;;;;;6.80;5.50;;;;;;;8.19;80.59;97472.65;106768;1270;22688;-78
2023/12/30 08:31:55;;;;;;;6.70;4.90;;;;;;;8.21;80.62;97476.05;107123;1284;22803;-77
2023/12/30 08:34:27;;;;;;;7.70;5.00;;;;;;;8.23;80.82;97479.69;106566;1283;25268;-78
2023/12/30 08:36:56;;;;;;;5.80;5.10;;;;;;;8.32;81.26;97474.23;106666;1283;22596;-79
2023/12/30 08:39:25;;;;;;;6.10;4.80;;;;;;;8.37;80.56;97486.44;106753;1282;23015;-78
2023/12/30 08:41:53;;;;;;;9.90;5.30;;;;;;;8.41;79.81;97483.77;106722;1275;25297;-78
2023/12/30 08:44:22;;;;;;;6.20;4.20;;;;;;;8.43;79.82;97491.21;106601;1268;22708;-78
2023/12/30 08:46:50;;;;;;;5.40;4.00;;;;;;;8.44;79.61;97495.90;106251;1276;22569;-77
2023/12/30 08:49:18;;;;;;;6.60;4.90;;;;;;;8.47;79.64;97496.13;106307;1270;25277;-77
2023/12/30 08:51:46;;;;;;;6.50;5.40;;;;;;;8.48;79.49;97494.83;106302;1283;25286;-78
2023/12/30 08:54:14;;;;;;;7.80;5.30;;;;;;;8.54;80.36;97498.05;106331;1273;25484;-78
2023/12/30 08:56:42;;;;;;;9.30;6.10;;;;;;;8.60;79.62;97508.90;106127;1283;26525;-78
2023/12/30 08:59:10;;;;;;;5.70;4.90;;;;;;;8.62;79.42;97510.78;106308;1268;24246;-77
2023/12/30 09:01:37;;;;;;;10.20;7.00;;;;;;;8.66;78.98;97508.59;106215;1276;25460;-78
2023/12/30 09:04:05;;;;;;;9.40;5.60;;;;;;;8.69;78.83;97516.84;106166;1277;22534;-79
2023/12/30 09:06:33;;;;;;;6.40;4.90;;;;;;;8.76;78.26;97530.33;106609;1283;23461;-77
2023/12/30 09:09:04;;;;;;;7.20;5.30;;;;;;;8.80;78.42;97519.71;106236;1261;22537;-77
2023/12/30 09:11:35;;;;;;;7.10;5.30;;;;;;;8.86;77.89;97515.43;106196;1283;22636;-77
2023/12/30 09:14:03;;;;;;;5.40;4.10;;;;;;;8.90;77.76;97512.25;106221;1283;22556;-77
2023/12/30 09:16:32;;;;;;;6.20;4.80;;;;;;;8.93;77.47;97530.30;106258;1281;22544;-77
2023/12/30 09:19:00;;;;;;;6.40;4.70;;;;;;;8.97;78.00;97510.98;106234;1283;22570;-78
2023/12/30 09:21:29;;;;;;;6.80;4.60;;;;;;;8.99;77.54;97507.60;106244;1272;24406;-78
2023/12/30 09:23:57;;;;;;;4.60;4.10;;;;;;;9.03;77.90;97510.59;106252;1276;22650;-78
2023/12/30 09:26:25;;;;;;;7.40;5.00;;;;;;;9.07;77.29;97504.56;106205;1270;22551;-77
2023/12/30 09:28:53;;;;;;;5.60;4.30;;;;;;;9.11;77.20;97505.88;106214;1268;22544;-77
2023/12/30 09:31:24;;;;;;;6.10;5.20;;;;;;;9.14;76.91;97515.29;106219;1273;22555;-77
2023/12/30 09:33:52;;;;;;;7.50;5.70;;;;;;;9.19;76.39;97507.77;106249;1270;25270;-77
2023/12/30 09:36:20;;;;;;;10.90;8.10;;;;;;;9.21;75.90;97514.19;106240;1272;22552;-78
2023/12/30 09:38:49;;;;;;;10.10;6.80;;;;;;;9.23;75.94;97506.08;106269;1276;22540;-78
2023/12/30 09:41:24;;;;;;;7.40;4.90;;;;;;;9.29;76.10;97496.97;106275;1282;25406;-78
2023/12/30 09:43:53;;;;;;;;;;;;;;;9.37;75.68;97491.87;106178;1273;22796;-78
2023/12/30 09:46:23;;;;;;;6.40;5.00;;;;;;;9.44;74.94;97491.11;106240;1277;22596;-78
2023/12/30 09:48:52;;;;;;;13.60;10.20;;;;;;;9.50;74.66;97492.56;107037;1283;25429;-78
2023/12/30 09:51:21;;;;;;;5.80;4.90;;;;;;;9.55;74.69;97488.91;106339;1270;293574;-78
2023/12/30 09:53:49;;;;;;;9.10;6.20;;;;;;;9.61;74.20;97482.38;106312;1276;22560;-78
2023/12/30 09:56:18;;;;;;;8.00;6.60;;;;;;;9.62;73.66;97490.53;106235;1269;22547;-77
2023/12/30 09:58:46;;;;;;;9.20;6.00;;;;;;;9.63;73.59;97490.31;106404;1268;22543;-79
2023/12/30 10:01:16;;;;;;;7.80;5.10;;;;;;;9.61;73.21;97491.41;106376;1261;22536;-78
2023/12/30 10:03:44;;;;;;;8.10;5.20;;;;;;;9.62;73.08;97499.15;107902;1268;25516;-77
2023/12/30 10:06:17;;;;;;;8.10;4.90;;;;;;;9.61;72.77;97501.05;106491;1282;24336;-78
2023/12/30 10:08:47;;;;;;;7.70;4.40;;;;;;;9.57;72.75;97511.40;106472;1270;22633;-78
2023/12/30 10:11:42;;;;;;;6.30;4.80;;;;;;;9.55;72.73;97505.52;106565;1284;24564;-78
2023/12/30 10:14:10;;;;;;;7.20;5.20;;;;;;;9.60;72.72;97506.30;106852;1283;24796;-78
2023/12/30 10:16:38;;;;;;;6.30;4.90;;;;;;;9.69;72.50;97528.17;106546;1275;22571;-78
2023/12/30 10:19:11;;;;;;;6.80;4.40;;;;;;;9.77;71.83;97540.31;106606;1273;22563;-78
2023/12/30 10:21:40;;;;;;;8.90;4.70;;;;;;;9.79;71.80;97514.11;106521;1270;22692;-78
2023/12/30 10:24:08;;;;;;;9.20;6.30;;;;;;;9.87;71.66;97521.25;106326;1283;22719;-77
2023/12/30 10:26:39;;;;;;;6.00;4.70;;;;;;;9.94;71.34;97529.70;106186;1283;24405;-77
2023/12/30 10:29:08;;;;;;;5.30;3.80;;;;;;;9.91;70.75;97542.05;106395;1260;25505;-77
2023/12/30 10:31:36;;;;;;;6.40;4.20;;;;;;;9.86;70.48;97553.63;106225;1269;22541;-77
2023/12/30 10:34:05;;;;;;;6.00;4.10;;;;;;;9.83;70.64;97545.56;106248;1277;22540;-78
2023/12/30 10:36:33;;;;;;;7.50;4.50;;;;;;;9.84;70.83;97526.44;106635;1283;23651;-78
2023/12/30 10:39:01;;;;;;;7.20;4.40;;;;;;;9.89;70.80;97531.05;106645;1273;22648;-78
2023/12/30 10:41:29;;;;;;;6.00;4.50;;;;;;;9.94;70.01;97531.98;106600;1283;24394;-78
2023/12/30 10:43:58;;;;;;;7.60;4.30;;;;;;;9.98;70.15;97526.34;106702;1277;22591;-78
2023/12/30 10:46:26;;;;;;;7.40;3.80;;;;;;;10.04;69.65;97547.80;106705;1283;22799;-78
2023/12/30 10:48:56;;;;;;;7.10;4.60;;;;;;;10.06;69.37;97552.66;106661;1282;22791;-79
2023/12/30 10:51:26;;;;;;;5.60;3.70;;;;;;;10.09;69.27;97545.24;106682;1276;22574;-81
2023/12/30 10:54:05;;;;;;;8.10;4.20;;;;;;;10.13;69.41;97556.16;106655;1276;22568;-77
2023/12/30 10:56:40;;;;;;;6.20;4.60;;;;;;;10.19;69.58;97550.47;106500;1283;23468;-78
2023/12/30 10:59:12;;;;;;;6.50;4.80;;;;;;;10.27;69.36;97564.13;106769;1276;22685;-79
2023/12/30 11:01:40;;;;;;;5.70;4.00;;;;;;;10.26;68.79;97562.01;106607;1283;22679;-78
2023/12/30 11:04:14;;;;;;;7.50;5.70;;;;;;;10.19;70.88;97577.13;106525;1272;23962;-78
2023/12/30 11:06:51;;;;;;;7.50;5.40;;;;;;;9.85;74.83;97573.02;106538;1282;24455;-78
2023/12/30 11:09:29;;;;;;;7.70;6.00;;;;;;;9.31;78.52;97574.73;106338;1273;22556;-78
2023/12/30 11:12:02;;;;;;;7.00;6.10;;;;;;;8.86;82.79;97568.55;106536;1283;22543;-78
2023/12/30 11:14:31;;;;;;;7.60;6.70;;;;;;;8.34;86.83;97590.27;106187;1276;22561;-78
2023/12/30 11:16:59;;;;;;;7.90;6.50;;;;;;;7.71;90.61;97608.34;106264;1270;22598;-77
2023/12/30 11:19:31;;;;;;;9.60;7.70;;;;;;;7.23;93.44;97598.96;106274;1270;22724;-78
2023/12/30 11:22:01;;;;;;;7.60;6.20;;;;;;;6.91;96.75;97607.57;106328;1273;25280;-78
2023/12/30 11:24:30;;;;;;;8.60;6.20;;;;;;;6.52;98.44;97607.14;106308;1276;24845;-79
2023/12/30 11:26:58;;;;;;;7.00;5.10;;;;;;;6.29;99.31;97605.74;106588;1277;22801;-79
2023/12/30 11:29:27;;;;;;;5.90;5.30;;;;;;;6.19;99.92;97595.70;106600;1268;22533;-76
2023/12/30 11:32:01;;;;;;;6.70;5.40;;;;;;;6.04;100.00;97603.77;106262;1281;22649;-76
2023/12/30 11:34:28;;;;;;;6.80;5.80;;;;;;;5.92;100.00;97603.98;106235;1269;23918;-77
2023/12/30 11:36:58;;;;;;;6.60;5.50;;;;;;;5.90;100.00;97616.54;106147;1273;25425;-78
2023/12/30 11:39:31;;;;;;;7.20;5.70;;;;;;;5.80;100.00;97615.77;106308;1277;22557;-77